sensor_id;sensor_type;location;lat;lon;timestamp;P1;durP1;ratioP1;P2;durP2;ratioP2
40595;SDS011;26304;48.794;9.820;2023-02-28T00:00:56;1.00;;;0.90;;
40595;SDS011;26304;48.794;9.820;2023-02-28T00:06:38;0.90;;;0.73;;
40595;SDS011;26304;48.794;9.820;2023-02-28T00:12:21;1.00;;;0.98;;
40595;SDS011;26304;48.794;9.820;2023-02-28T00:18:05;1.25;;;1.00;;
40595;SDS011;26304;48.794;9.820;2023-02-28T00:23:47;1.00;;;0.90;;
40595;SDS011;26304;48.794;9.820;2023-02-28T00:29:30;0.70;;;0.70;;
40595;SDS011;26304;48.794;9.820;2023-02-28T00:35:13;0.90;;;0.80;;
40595;SDS011;26304;48.794;9.820;2023-02-28T00:40:56;0.98;;;0.82;;
40595;SDS011;26304;48.794;9.820;2023-02-28T00:46:39;0.75;;;0.70;;
40595;SDS011;26304;48.794;9.820;2023-02-28T00:52:23;0.77;;;0.77;;
40595;SDS011;26304;48.794;9.820;2023-02-28T00:58:05;0.93;;;0.90;;
40595;SDS011;26304;48.794;9.820;2023-02-28T01:03:48;0.60;;;0.60;;
40595;SDS011;26304;48.794;9.820;2023-02-28T01:09:31;0.85;;;0.85;;
40595;SDS011;26304;48.794;9.820;2023-02-28T01:15:14;1.38;;;0.63;;
40595;SDS011;26304;48.794;9.820;2023-02-28T01:20:56;0.77;;;0.77;;
40595;SDS011;26304;48.794;9.820;2023-02-28T01:26:40;1.17;;;0.80;;
40595;SDS011;26304;48.794;9.820;2023-02-28T01:32:23;0.80;;;0.80;;
40595;SDS011;26304;48.794;9.820;2023-02-28T01:38:05;0.85;;;0.80;;
40595;SDS011;26304;48.794;9.820;2023-02-28T01:44:03;2.03;;;0.70;;
40595;SDS011;26304;48.794;9.820;2023-02-28T01:49:47;0.75;;;0.75;;
40595;SDS011;26304;48.794;9.820;2023-02-28T01:55:30;0.90;;;0.90;;
40595;SDS011;26304;48.794;9.820;2023-02-28T02:01:15;0.88;;;0.70;;
40595;SDS011;26304;48.794;9.820;2023-02-28T02:07:02;0.57;;;0.57;;
40595;SDS011;26304;48.794;9.820;2023-02-28T02:12:49;0.95;;;0.75;;
40595;SDS011;26304;48.794;9.820;2023-02-28T02:18:46;0.60;;;0.60;;
40595;SDS011;26304;48.794;9.820;2023-02-28T02:24:43;0.52;;;0.52;;
40595;SDS011;26304;48.794;9.820;2023-02-28T02:30:51;0.88;;;0.88;;
40595;SDS011;26304;48.794;9.820;2023-02-28T02:36:45;0.68;;;0.65;;
40595;SDS011;26304;48.794;9.820;2023-02-28T02:42:34;0.70;;;0.70;;
40595;SDS011;26304;48.794;9.820;2023-02-28T02:48:24;0.80;;;0.80;;
40595;SDS011;26304;48.794;9.820;2023-02-28T02:54:12;0.63;;;0.60;;
40595;SDS011;26304;48.794;9.820;2023-02-28T02:59:59;0.93;;;0.70;;
40595;SDS011;26304;48.794;9.820;2023-02-28T03:05:46;0.90;;;0.70;;
40595;SDS011;26304;48.794;9.820;2023-02-28T03:11:31;0.77;;;0.70;;
40595;SDS011;26304;48.794;9.820;2023-02-28T03:17:20;0.75;;;0.70;;
40595;SDS011;26304;48.794;9.820;2023-02-28T03:23:13;0.60;;;0.60;;
40595;SDS011;26304;48.794;9.820;2023-02-28T03:29:02;0.60;;;0.60;;
40595;SDS011;26304;48.794;9.820;2023-02-28T03:34:48;0.50;;;0.50;;
40595;SDS011;26304;48.794;9.820;2023-02-28T03:40:39;0.50;;;0.50;;
40595;SDS011;26304;48.794;9.820;2023-02-28T03:46:28;0.40;;;0.32;;
40595;SDS011;26304;48.794;9.820;2023-02-28T03:52:14;0.30;;;0.30;;
40595;SDS011;26304;48.794;9.820;2023-02-28T03:58:01;0.40;;;0.40;;
40595;SDS011;26304;48.794;9.820;2023-02-28T04:03:51;0.22;;;0.22;;
40595;SDS011;26304;48.794;9.820;2023-02-28T04:09:34;0.20;;;0.20;;
40595;SDS011;26304;48.794;9.820;2023-02-28T04:15:16;0.20;;;0.20;;
40595;SDS011;26304;48.794;9.820;2023-02-28T04:21:05;0.22;;;0.22;;
40595;SDS011;26304;48.794;9.820;2023-02-28T04:26:49;0.17;;;0.17;;
40595;SDS011;26304;48.794;9.820;2023-02-28T04:32:32;0.20;;;0.20;;
40595;SDS011;26304;48.794;9.820;2023-02-28T04:38:16;0.20;;;0.20;;
40595;SDS011;26304;48.794;9.820;2023-02-28T04:43:58;0.10;;;0.10;;
40595;SDS011;26304;48.794;9.820;2023-02-28T04:49:41;0.10;;;0.10;;
40595;SDS011;26304;48.794;9.820;2023-02-28T04:55:25;0.10;;;0.10;;
40595;SDS011;26304;48.794;9.820;2023-02-28T05:01:14;0.20;;;0.20;;
40595;SDS011;26304;48.794;9.820;2023-02-28T05:06:59;0.10;;;0.10;;
40595;SDS011;26304;48.794;9.820;2023-02-28T05:12:43;0.10;;;0.10;;
40595;SDS011;26304;48.794;9.820;2023-02-28T05:18:26;0.10;;;0.10;;
40595;SDS011;26304;48.794;9.820;2023-02-28T05:24:10;0.10;;;0.10;;
40595;SDS011;26304;48.794;9.820;2023-02-28T05:29:54;0.00;;;0.00;;
40595;SDS011;26304;48.794;9.820;2023-02-28T05:35:37;0.10;;;0.10;;
40595;SDS011;26304;48.794;9.820;2023-02-28T05:41:20;0.10;;;0.10;;
40595;SDS011;26304;48.794;9.820;2023-02-28T05:47:04;0.10;;;0.10;;
40595;SDS011;26304;48.794;9.820;2023-02-28T05:52:48;0.32;;;0.20;;
40595;SDS011;26304;48.794;9.820;2023-02-28T05:58:31;0.22;;;0.20;;
40595;SDS011;26304;48.794;9.820;2023-02-28T06:04:16;1.45;;;1.00;;
40595;SDS011;26304;48.794;9.820;2023-02-28T06:10:01;2.92;;;1.15;;
40595;SDS011;26304;48.794;9.820;2023-02-28T06:15:43;1.38;;;1.02;;
40595;SDS011;26304;48.794;9.820;2023-02-28T06:21:27;2.53;;;1.08;;
40595;SDS011;26304;48.794;9.820;2023-02-28T06:27:10;3.75;;;1.58;;
40595;SDS011;26304;48.794;9.820;2023-02-28T06:32:52;5.47;;;1.98;;
40595;SDS011;26304;48.794;9.820;2023-02-28T06:38:36;2.45;;;1.10;;
40595;SDS011;26304;48.794;9.820;2023-02-28T06:44:19;2.55;;;1.30;;
40595;SDS011;26304;48.794;9.820;2023-02-28T06:50:01;2.22;;;1.23;;
40595;SDS011;26304;48.794;9.820;2023-02-28T06:55:45;3.97;;;1.67;;
40595;SDS011;26304;48.794;9.820;2023-02-28T07:01:28;5.05;;;1.77;;
40595;SDS011;26304;48.794;9.820;2023-02-28T07:07:12;4.13;;;1.48;;
40595;SDS011;26304;48.794;9.820;2023-02-28T07:12:56;5.80;;;1.80;;
40595;SDS011;26304;48.794;9.820;2023-02-28T07:18:38;4.03;;;1.80;;
40595;SDS011;26304;48.794;9.820;2023-02-28T07:24:20;3.55;;;1.80;;
40595;SDS011;26304;48.794;9.820;2023-02-28T07:30:09;3.65;;;1.73;;
40595;SDS011;26304;48.794;9.820;2023-02-28T07:35:59;4.50;;;1.80;;
40595;SDS011;26304;48.794;9.820;2023-02-28T07:41:42;3.40;;;1.60;;
40595;SDS011;26304;48.794;9.820;2023-02-28T07:47:26;3.58;;;1.60;;
40595;SDS011;26304;48.794;9.820;2023-02-28T07:53:08;2.95;;;1.52;;
40595;SDS011;26304;48.794;9.820;2023-02-28T07:58:51;3.63;;;1.38;;
40595;SDS011;26304;48.794;9.820;2023-02-28T08:04:35;2.50;;;1.50;;
40595;SDS011;26304;48.794;9.820;2023-02-28T08:10:17;1.98;;;1.20;;
40595;SDS011;26304;48.794;9.820;2023-02-28T08:16:00;1.75;;;0.98;;
40595;SDS011;26304;48.794;9.820;2023-02-28T08:21:44;2.25;;;1.30;;
40595;SDS011;26304;48.794;9.820;2023-02-28T08:27:27;4.17;;;1.70;;
40595;SDS011;26304;48.794;9.820;2023-02-28T08:33:09;1.98;;;1.20;;
40595;SDS011;26304;48.794;9.820;2023-02-28T08:38:53;1.15;;;0.90;;
40595;SDS011;26304;48.794;9.820;2023-02-28T08:44:35;1.52;;;1.13;;
40595;SDS011;26304;48.794;9.820;2023-02-28T08:50:18;2.65;;;1.33;;
40595;SDS011;26304;48.794;9.820;2023-02-28T08:56:02;3.30;;;1.55;;
40595;SDS011;26304;48.794;9.820;2023-02-28T09:01:47;1.83;;;0.95;;
40595;SDS011;26304;48.794;9.820;2023-02-28T09:07:29;2.35;;;1.20;;
40595;SDS011;26304;48.794;9.820;2023-02-28T09:13:13;1.75;;;1.02;;
40595;SDS011;26304;48.794;9.820;2023-02-28T09:18:55;2.45;;;1.17;;
40595;SDS011;26304;48.794;9.820;2023-02-28T09:24:38;1.75;;;1.17;;
40595;SDS011;26304;48.794;9.820;2023-02-28T09:30:22;2.25;;;1.30;;
40595;SDS011;26304;48.794;9.820;2023-02-28T09:36:05;1.92;;;1.20;;
40595;SDS011;26304;48.794;9.820;2023-02-28T09:41:49;1.33;;;1.20;;
40595;SDS011;26304;48.794;9.820;2023-02-28T09:47:36;1.38;;;0.88;;
40595;SDS011;26304;48.794;9.820;2023-02-28T09:53:22;2.00;;;1.02;;
40595;SDS011;26304;48.794;9.820;2023-02-28T09:59:10;1.60;;;1.02;;
40595;SDS011;26304;48.794;9.820;2023-02-28T10:05:02;1.52;;;0.95;;
40595;SDS011;26304;48.794;9.820;2023-02-28T10:10:51;1.20;;;0.95;;
40595;SDS011;26304;48.794;9.820;2023-02-28T10:16:37;1.27;;;0.98;;
40595;SDS011;26304;48.794;9.820;2023-02-28T10:22:27;3.08;;;1.17;;
40595;SDS011;26304;48.794;9.820;2023-02-28T10:28:16;1.42;;;0.90;;
40595;SDS011;26304;48.794;9.820;2023-02-28T10:33:59;3.22;;;1.00;;
40595;SDS011;26304;48.794;9.820;2023-02-28T10:39:44;2.75;;;1.20;;
40595;SDS011;26304;48.794;9.820;2023-02-28T10:45:30;3.25;;;1.80;;
40595;SDS011;26304;48.794;9.820;2023-02-28T10:51:16;3.30;;;1.92;;
40595;SDS011;26304;48.794;9.820;2023-02-28T10:57:14;2.17;;;1.70;;
40595;SDS011;26304;48.794;9.820;2023-02-28T11:02:59;3.65;;;1.80;;
40595;SDS011;26304;48.794;9.820;2023-02-28T11:08:46;2.28;;;1.80;;
40595;SDS011;26304;48.794;9.820;2023-02-28T11:14:32;1.75;;;1.60;;
40595;SDS011;26304;48.794;9.820;2023-02-28T11:20:20;1.85;;;1.42;;
40595;SDS011;26304;48.794;9.820;2023-02-28T11:26:05;1.90;;;1.50;;
40595;SDS011;26304;48.794;9.820;2023-02-28T11:32:05;1.40;;;1.30;;
40595;SDS011;26304;48.794;9.820;2023-02-28T11:37:55;1.63;;;1.33;;
40595;SDS011;26304;48.794;9.820;2023-02-28T11:43:44;2.20;;;1.20;;
40595;SDS011;26304;48.794;9.820;2023-02-28T11:49:56;1.58;;;1.40;;
40595;SDS011;26304;48.794;9.820;2023-02-28T11:55:52;2.88;;;1.30;;
40595;SDS011;26304;48.794;9.820;2023-02-28T12:01:45;1.52;;;1.13;;
40595;SDS011;26304;48.794;9.820;2023-02-28T12:07:45;1.38;;;1.27;;
40595;SDS011;26304;48.794;9.820;2023-02-28T12:13:36;1.92;;;1.27;;
40595;SDS011;26304;48.794;9.820;2023-02-28T12:19:26;2.72;;;1.38;;
40595;SDS011;26304;48.794;9.820;2023-02-28T12:25:28;2.55;;;1.20;;
40595;SDS011;26304;48.794;9.820;2023-02-28T12:31:38;1.20;;;1.10;;
40595;SDS011;26304;48.794;9.820;2023-02-28T12:37:25;1.02;;;1.02;;
40595;SDS011;26304;48.794;9.820;2023-02-28T12:43:14;1.15;;;1.10;;
40595;SDS011;26304;48.794;9.820;2023-02-28T12:49:00;1.85;;;1.10;;
40595;SDS011;26304;48.794;9.820;2023-02-28T12:54:49;1.15;;;1.00;;
40595;SDS011;26304;48.794;9.820;2023-02-28T13:00:45;1.38;;;1.27;;
40595;SDS011;26304;48.794;9.820;2023-02-28T13:06:44;2.85;;;1.35;;
40595;SDS011;26304;48.794;9.820;2023-02-28T13:12:46;3.35;;;2.60;;
40595;SDS011;26304;48.794;9.820;2023-02-28T13:18:32;2.92;;;2.67;;
40595;SDS011;26304;48.794;9.820;2023-02-28T13:36:46;2.40;;;2.20;;
40595;SDS011;26304;48.794;9.820;2023-02-28T13:42:32;3.67;;;2.05;;
40595;SDS011;26304;48.794;9.820;2023-02-28T13:48:18;2.40;;;1.85;;
40595;SDS011;26304;48.794;9.820;2023-02-28T13:54:06;2.17;;;1.98;;
40595;SDS011;26304;48.794;9.820;2023-02-28T14:00:13;3.78;;;1.83;;
40595;SDS011;26304;48.794;9.820;2023-02-28T14:18:24;5.20;;;2.17;;
40595;SDS011;26304;48.794;9.820;2023-02-28T14:24:29;2.28;;;2.08;;
40595;SDS011;26304;48.794;9.820;2023-02-28T14:30:40;2.50;;;1.75;;
40595;SDS011;26304;48.794;9.820;2023-02-28T14:36:33;1.98;;;1.73;;
40595;SDS011;26304;48.794;9.820;2023-02-28T14:42:28;2.85;;;1.88;;
40595;SDS011;26304;48.794;9.820;2023-02-28T14:48:11;2.63;;;1.98;;
40595;SDS011;26304;48.794;9.820;2023-02-28T14:53:59;2.25;;;2.00;;
40595;SDS011;26304;48.794;9.820;2023-02-28T14:59:44;2.75;;;1.80;;
40595;SDS011;26304;48.794;9.820;2023-02-28T15:05:27;2.63;;;1.60;;
40595;SDS011;26304;48.794;9.820;2023-02-28T15:11:14;1.58;;;1.48;;
40595;SDS011;26304;48.794;9.820;2023-02-28T15:17:01;2.25;;;1.38;;
40595;SDS011;26304;48.794;9.820;2023-02-28T15:22:50;1.48;;;1.20;;
40595;SDS011;26304;48.794;9.820;2023-02-28T15:28:37;2.17;;;1.38;;
40595;SDS011;26304;48.794;9.820;2023-02-28T15:34:20;1.40;;;1.30;;
40595;SDS011;26304;48.794;9.820;2023-02-28T15:40:07;1.70;;;1.60;;
40595;SDS011;26304;48.794;9.820;2023-02-28T15:45:57;3.80;;;1.30;;
40595;SDS011;26304;48.794;9.820;2023-02-28T15:51:41;1.48;;;1.38;;
40595;SDS011;26304;48.794;9.820;2023-02-28T15:57:24;1.38;;;1.38;;
40595;SDS011;26304;48.794;9.820;2023-02-28T16:09:19;1.85;;;1.70;;
40595;SDS011;26304;48.794;9.820;2023-02-28T16:15:02;8.02;;;1.65;;
40595;SDS011;26304;48.794;9.820;2023-02-28T16:20:49;5.15;;;1.60;;
40595;SDS011;26304;48.794;9.820;2023-02-28T16:26:31;2.25;;;1.40;;
40595;SDS011;26304;48.794;9.820;2023-02-28T16:32:15;2.20;;;1.25;;
40595;SDS011;26304;48.794;9.820;2023-02-28T16:37:59;1.55;;;1.45;;
40595;SDS011;26304;48.794;9.820;2023-02-28T16:43:42;1.55;;;1.45;;
40595;SDS011;26304;48.794;9.820;2023-02-28T16:49:26;1.40;;;1.30;;
40595;SDS011;26304;48.794;9.820;2023-02-28T16:55:10;1.20;;;1.10;;
40595;SDS011;26304;48.794;9.820;2023-02-28T17:00:53;1.55;;;1.30;;
40595;SDS011;26304;48.794;9.820;2023-02-28T17:06:35;1.65;;;1.50;;
40595;SDS011;26304;48.794;9.820;2023-02-28T17:12:19;1.40;;;1.30;;
40595;SDS011;26304;48.794;9.820;2023-02-28T17:18:02;1.35;;;1.25;;
40595;SDS011;26304;48.794;9.820;2023-02-28T17:23:45;2.10;;;1.50;;
40595;SDS011;26304;48.794;9.820;2023-02-28T17:29:28;2.08;;;1.90;;
40595;SDS011;26304;48.794;9.820;2023-02-28T17:35:11;1.70;;;1.60;;
40595;SDS011;26304;48.794;9.820;2023-02-28T17:46:17;1.67;;;1.58;;
40595;SDS011;26304;48.794;9.820;2023-02-28T17:52:01;2.65;;;1.73;;
40595;SDS011;26304;48.794;9.820;2023-02-28T17:57:44;1.83;;;1.67;;
40595;SDS011;26304;48.794;9.820;2023-02-28T18:03:27;1.92;;;1.83;;
40595;SDS011;26304;48.794;9.820;2023-02-28T18:09:12;2.22;;;1.88;;
40595;SDS011;26304;48.794;9.820;2023-02-28T18:14:55;1.85;;;1.75;;
40595;SDS011;26304;48.794;9.820;2023-02-28T18:20:39;2.35;;;1.88;;
40595;SDS011;26304;48.794;9.820;2023-02-28T18:26:21;2.97;;;1.88;;
40595;SDS011;26304;48.794;9.820;2023-02-28T18:32:03;3.55;;;1.77;;
40595;SDS011;26304;48.794;9.820;2023-02-28T18:37:48;3.20;;;2.10;;
40595;SDS011;26304;48.794;9.820;2023-02-28T18:43:31;3.58;;;2.28;;
40595;SDS011;26304;48.794;9.820;2023-02-28T18:49:14;8.55;;;3.20;;
40595;SDS011;26304;48.794;9.820;2023-02-28T18:54:58;5.22;;;2.65;;
40595;SDS011;26304;48.794;9.820;2023-02-28T19:00:41;6.57;;;2.63;;
40595;SDS011;26304;48.794;9.820;2023-02-28T19:06:23;7.63;;;3.80;;
40595;SDS011;26304;48.794;9.820;2023-02-28T19:12:08;8.35;;;3.38;;
40595;SDS011;26304;48.794;9.820;2023-02-28T19:17:50;7.40;;;3.42;;
40595;SDS011;26304;48.794;9.820;2023-02-28T19:23:33;5.78;;;2.97;;
40595;SDS011;26304;48.794;9.820;2023-02-28T19:29:17;5.85;;;3.05;;
40595;SDS011;26304;48.794;9.820;2023-02-28T19:34:59;4.30;;;2.80;;
40595;SDS011;26304;48.794;9.820;2023-02-28T19:40:42;5.37;;;3.47;;
40595;SDS011;26304;48.794;9.820;2023-02-28T19:46:26;3.05;;;2.60;;
40595;SDS011;26304;48.794;9.820;2023-02-28T19:52:09;4.07;;;3.05;;
40595;SDS011;26304;48.794;9.820;2023-02-28T19:57:51;4.28;;;2.50;;
40595;SDS011;26304;48.794;9.820;2023-02-28T20:03:35;6.78;;;2.67;;
40595;SDS011;26304;48.794;9.820;2023-02-28T20:09:18;4.93;;;3.38;;
40595;SDS011;26304;48.794;9.820;2023-02-28T20:15:00;5.25;;;3.00;;
40595;SDS011;26304;48.794;9.820;2023-02-28T20:20:44;4.50;;;2.90;;
40595;SDS011;26304;48.794;9.820;2023-02-28T20:26:26;5.28;;;3.20;;
40595;SDS011;26304;48.794;9.820;2023-02-28T20:32:11;4.85;;;2.75;;
40595;SDS011;26304;48.794;9.820;2023-02-28T20:37:55;5.55;;;3.13;;
40595;SDS011;26304;48.794;9.820;2023-02-28T20:43:38;6.40;;;5.78;;
40595;SDS011;26304;48.794;9.820;2023-02-28T20:49:20;6.30;;;5.80;;
40595;SDS011;26304;48.794;9.820;2023-02-28T20:55:05;7.85;;;7.05;;
40595;SDS011;26304;48.794;9.820;2023-02-28T21:00:49;8.25;;;7.55;;
40595;SDS011;26304;48.794;9.820;2023-02-28T21:06:32;7.10;;;6.50;;
40595;SDS011;26304;48.794;9.820;2023-02-28T21:12:18;6.85;;;6.28;;
40595;SDS011;26304;48.794;9.820;2023-02-28T21:18:00;5.97;;;5.40;;
40595;SDS011;26304;48.794;9.820;2023-02-28T21:23:43;5.45;;;4.90;;
40595;SDS011;26304;48.794;9.820;2023-02-28T21:29:27;5.55;;;5.05;;
40595;SDS011;26304;48.794;9.820;2023-02-28T21:35:10;5.30;;;4.80;;
40595;SDS011;26304;48.794;9.820;2023-02-28T21:40:52;4.82;;;4.32;;
40595;SDS011;26304;48.794;9.820;2023-02-28T21:46:36;5.35;;;4.90;;
40595;SDS011;26304;48.794;9.820;2023-02-28T21:52:18;4.55;;;4.15;;
40595;SDS011;26304;48.794;9.820;2023-02-28T21:58:01;4.97;;;4.57;;
40595;SDS011;26304;48.794;9.820;2023-02-28T22:03:45;4.50;;;4.13;;
40595;SDS011;26304;48.794;9.820;2023-02-28T22:09:29;4.28;;;3.88;;
40595;SDS011;26304;48.794;9.820;2023-02-28T22:15:12;4.65;;;4.25;;
40595;SDS011;26304;48.794;9.820;2023-02-28T22:20:55;4.25;;;3.92;;
40595;SDS011;26304;48.794;9.820;2023-02-28T22:26:38;4.18;;;3.70;;
40595;SDS011;26304;48.794;9.820;2023-02-28T22:32:20;5.07;;;4.10;;
40595;SDS011;26304;48.794;9.820;2023-02-28T22:38:04;4.03;;;3.70;;
40595;SDS011;26304;48.794;9.820;2023-02-28T22:43:49;4.05;;;3.75;;
40595;SDS011;26304;48.794;9.820;2023-02-28T22:49:33;3.88;;;3.58;;
40595;SDS011;26304;48.794;9.820;2023-02-28T22:55:16;3.72;;;3.42;;
40595;SDS011;26304;48.794;9.820;2023-02-28T23:01:03;3.75;;;3.45;;
40595;SDS011;26304;48.794;9.820;2023-02-28T23:06:46;3.60;;;3.30;;
40595;SDS011;26304;48.794;9.820;2023-02-28T23:12:30;3.53;;;3.22;;
40595;SDS011;26304;48.794;9.820;2023-02-28T23:18:13;3.53;;;3.33;;
40595;SDS011;26304;48.794;9.820;2023-02-28T23:23:56;3.42;;;3.13;;
40595;SDS011;26304;48.794;9.820;2023-02-28T23:29:40;3.75;;;3.42;;
40595;SDS011;26304;48.794;9.820;2023-02-28T23:35:23;3.55;;;3.25;;
40595;SDS011;26304;48.794;9.820;2023-02-28T23:41:06;3.15;;;2.85;;
40595;SDS011;26304;48.794;9.820;2023-02-28T23:46:50;3.53;;;3.13;;
40595;SDS011;26304;48.794;9.820;2023-02-28T23:52:34;3.30;;;3.10;;
40595;SDS011;26304;48.794;9.820;2023-02-28T23:58:16;3.08;;;2.88;;
